Aérodrome :
LOGIN :

S'inscrire | Disclaimer

   EN    FR    IT 

 










Légende :    VFR   VFR Marginal   IFR   IFR Intensif   IFR Très Intensif
Visi : 
Plafond : 
>= 8 km
>= 3000ft
5 à 8 km
1000 à 3000 ft
1500m à 5 km
500 à 1000 ft
800 à 1500m
200 à 500 ft
< 800m
< 200 ft
Symboles :   Orages  Brouillard  Fortes neiges  Fortes précipitations  Vent > 20 kt
SIGMETs :   Divers  Orages  Givrage  Turbulence  Onde Orograph.  Cendres Volcan.







- Altitude de l'aérodrome : 659 ft
- Code IATA : LYN
- Voir les cartes d'approche


LFLY - Lyon Bron

DERNIER METAR :
  • 152230Z AUTO VRB03KT 4900 -RA BR OVC037/// ///TCU 02/00 Q1017 TEMPO 2000 RA BKN011

METARs EXPIRÉS :
  • 152200Z AUTO 16004KT 4700 -RA BR BKN040 OVC046 02/M00 Q1017 TEMPO 2000 RA BKN011
  • 152130Z AUTO 17004KT 140V200 5000 -RA BR BKN049 BKN058 OVC076 02/M01 Q1018 TEMPO 2000 RA BKN011
  • 152100Z AUTO 17004KT 5000 -RA BR FEW052 BKN068 OVC090 02/M01 Q1018 NOSIG
  • 152030Z AUTO 18002KT 4900 -SNRA BR SCT052 BKN066 OVC078 02/M01 Q1018 NOSIG
  • 152000Z AUTO 16003KT 6000 -RA NSC 02/M01 Q1018 TEMPO 4000 -RA

TAF AMD TAF LFLY
Valide du 15 à 18h jusqu'au 16 à 18h UTC


151717Z 1518/1618 15005KT 9999 FEW040 BKN060
TEMPO 1518/1604 4000 -RA
PROB30
TEMPO 1518/1519 -SN
PROB40
TEMPO 1523/1604 2000 RA BKN011
PROB40
TEMPO 1604/1618 4000 -RA BR BKN008
ATIS : +33 4 72 15 87 96
Pas de NOTAMs connus pour ce terrain.



MET'MAP, la Météo Aéronautique d'un coup d'oeil ! - Copyright ORBIFLY Décembre 2007 - Disclaimer

ORBIFLY MET'MAP TEAM :

Programmation & Développement : Alexandra Zaïnal
Conception & Développement : Baudouin d'Aumeries
Co-Programmation & Développement : Marc-Olivier Méhu
Soutien technique & logistique : Manuel Goepfert

Contact : metmap@orbifly.com




SOURCES & CREDITS :

   NOAA